createdAt,value
2022-11-14T00:01:00.714Z,101057.25
2022-11-14T00:03:50.469Z,101055.78
2022-11-14T00:06:37.066Z,101052.56
2022-11-14T00:09:27.339Z,101045.81
2022-11-14T00:12:13.208Z,101040.78
2022-11-14T00:14:59.284Z,101044.16
2022-11-14T00:17:45.606Z,101045.38
2022-11-14T00:20:32.374Z,101051.50
2022-11-14T00:23:18.883Z,101049.81
2022-11-14T00:26:06.655Z,101045.62
2022-11-14T00:28:54.253Z,101048.50
2022-11-14T00:31:40.517Z,101046.47
2022-11-14T00:34:26.611Z,101047.78
2022-11-14T00:37:12.741Z,101045.72
2022-11-14T00:39:58.763Z,101044.47
2022-11-14T00:42:45.081Z,101042.78
2022-11-14T00:45:31.141Z,101048.28
2022-11-14T00:48:17.573Z,101052.84
2022-11-14T00:51:03.818Z,101040.66
2022-11-14T00:53:49.908Z,101045.41
2022-11-14T00:56:36.050Z,101046.66
2022-11-14T00:59:22.342Z,101043.59
2022-11-14T01:02:08.285Z,101044.91
2022-11-14T01:04:57.099Z,101043.81
2022-11-14T01:07:45.341Z,101037.34
2022-11-14T01:10:31.309Z,101040.69
2022-11-14T01:13:18.788Z,101039.78
2022-11-14T01:16:05.797Z,101034.63
2022-11-14T01:18:51.810Z,101027.47
2022-11-14T01:21:38.100Z,101022.78
2022-11-14T01:24:25.334Z,101026.59
2022-11-14T01:27:11.398Z,101025.06
2022-11-14T01:29:57.524Z,101026.81
2022-11-14T01:32:43.767Z,101029.28
2022-11-14T01:35:30.100Z,101022.78
2022-11-14T01:38:16.225Z,101020.16
2022-11-14T01:41:03.236Z,101023.06
2022-11-14T01:43:49.723Z,101011.28
2022-11-14T01:46:38.013Z,101010.47
2022-11-14T01:49:38.326Z,101012.09
2022-11-14T01:52:24.361Z,101008.16
2022-11-14T01:55:10.870Z,101004.25
2022-11-14T01:57:57.560Z,100992.75
2022-11-14T02:00:44.458Z,101001.69
2022-11-14T02:03:31.627Z,100996.75
2022-11-14T02:06:20.752Z,100993.34
2022-11-14T02:09:07.289Z,100997.62
2022-11-14T02:11:54.686Z,100993.50
2022-11-14T02:14:42.604Z,100994.78
2022-11-14T02:17:30.844Z,101000.66
2022-11-14T02:20:21.888Z,100999.69
2022-11-14T02:23:29.953Z,100996.13
2022-11-14T02:26:18.997Z,100999.47
2022-11-14T02:29:06.057Z,100995.66
2022-11-14T02:31:51.992Z,100993.53
2022-11-14T02:34:40.143Z,100994.88
2022-11-14T02:37:26.343Z,100998.97
2022-11-14T02:40:12.641Z,100993.19
2022-11-14T02:42:58.560Z,100998.78
2022-11-14T02:45:44.826Z,100995.09
2022-11-14T02:48:43.032Z,101001.78
2022-11-14T02:51:41.408Z,100999.97
2022-11-14T02:54:38.983Z,101004.75
2022-11-14T02:57:37.460Z,100994.06
2022-11-14T03:00:36.672Z,100990.47
2022-11-14T03:03:33.765Z,100989.16
2022-11-14T03:06:32.132Z,101004.16
2022-11-14T03:09:29.684Z,100998.28
2022-11-14T03:12:12.102Z,100985.63
2022-11-14T03:14:54.089Z,100989.47
2022-11-14T03:17:40.785Z,100990.28
2022-11-14T03:20:37.233Z,100985.78
2022-11-14T03:23:38.125Z,100979.00
2022-11-14T03:26:34.816Z,100988.47
2022-11-14T03:29:40.784Z,100983.66
2022-11-14T03:32:47.268Z,100976.31
2022-11-14T03:35:35.166Z,100977.34
2022-11-14T03:38:25.783Z,100978.19
2022-11-14T03:41:12.864Z,100984.94
2022-11-14T03:43:55.205Z,100979.56
2022-11-14T03:46:37.226Z,100982.00
2022-11-14T03:49:19.261Z,100971.16
2022-11-14T03:52:01.319Z,100977.81
2022-11-14T03:54:48.391Z,100973.03
2022-11-14T03:57:34.595Z,100972.81
2022-11-14T04:00:21.054Z,100973.63
2022-11-14T04:03:07.092Z,100971.78
2022-11-14T04:05:53.338Z,100970.53
2022-11-14T04:08:42.656Z,100961.16
2022-11-14T04:11:29.236Z,100972.56
2022-11-14T04:14:14.250Z,100961.72
2022-11-14T04:17:00.457Z,100962.56
2022-11-14T04:19:48.496Z,100959.47
2022-11-14T04:22:30.336Z,100969.47
2022-11-14T04:25:12.206Z,100969.19
2022-11-14T04:27:58.575Z,100967.50
2022-11-14T04:30:45.375Z,100960.22
2022-11-14T04:33:31.335Z,100954.72
2022-11-14T04:36:13.140Z,100954.12
2022-11-14T04:38:55.400Z,100951.84
2022-11-14T04:41:37.201Z,100944.44
2022-11-14T04:44:48.151Z,100942.56
2022-11-14T04:47:34.395Z,100939.47
2022-11-14T04:50:20.405Z,100932.97
2022-11-14T04:53:06.404Z,100930.50
2022-11-14T04:55:52.408Z,100923.84
2022-11-14T04:58:38.162Z,100929.09
2022-11-14T05:01:24.039Z,100923.56
2022-11-14T05:04:10.346Z,100921.53
2022-11-14T05:06:56.291Z,100922.56
2022-11-14T05:09:42.512Z,100916.81
2022-11-14T05:12:28.517Z,100912.53
2022-11-14T05:15:14.803Z,100920.66
2022-11-14T05:18:01.404Z,100916.81
2022-11-14T05:20:47.398Z,100910.03
2022-11-14T05:23:33.477Z,100924.06
2022-11-14T05:26:19.742Z,100922.38
2022-11-14T05:29:05.668Z,100932.19
2022-11-14T05:31:51.775Z,100927.94
2022-11-14T05:34:38.361Z,100919.47
2022-11-14T05:37:24.535Z,100918.87
2022-11-14T05:40:11.098Z,100918.28
2022-11-14T05:42:57.183Z,100922.50
2022-11-14T05:45:43.288Z,100922.50
2022-11-14T05:48:30.733Z,100920.09
2022-11-14T05:51:16.920Z,100918.72
2022-11-14T05:54:03.069Z,100923.84
2022-11-14T05:56:49.259Z,100926.31
2022-11-14T05:59:35.480Z,100926.59
2022-11-14T06:02:21.831Z,100925.09
2022-11-14T06:05:08.412Z,100923.03
2022-11-14T06:07:58.838Z,100931.31
2022-11-14T06:10:45.066Z,100933.47
2022-11-14T06:13:32.924Z,100935.94
2022-11-14T06:16:34.162Z,100946.56
2022-11-14T06:19:31.808Z,100952.91
2022-11-14T06:22:14.159Z,100946.97
2022-11-14T06:24:56.244Z,100953.66
2022-11-14T06:27:53.890Z,100954.47
2022-11-14T06:30:36.232Z,100941.16
2022-11-14T06:33:41.813Z,100936.22
2022-11-14T06:36:24.519Z,100952.31
2022-11-14T06:39:06.233Z,100954.59
2022-11-14T06:41:48.270Z,100950.00
2022-11-14T06:44:31.263Z,100956.75
2022-11-14T06:47:12.210Z,100962.97
2022-11-14T06:49:54.263Z,100951.44
2022-11-14T06:52:36.222Z,100950.00
2022-11-14T06:55:23.955Z,100949.09
2022-11-14T07:02:23.035Z,100954.12
2022-11-14T07:05:20.832Z,100961.91
2022-11-14T07:08:03.575Z,100958.75
2022-11-14T07:10:46.294Z,100962.06
2022-11-14T07:13:28.163Z,100956.84
2022-11-14T07:16:10.267Z,100945.78
2022-11-14T07:18:52.585Z,100957.19
2022-11-14T07:21:35.489Z,100948.34
2022-11-14T07:24:27.225Z,100947.41
2022-11-14T07:27:13.432Z,100950.34
2022-11-14T07:29:56.419Z,100947.59
2022-11-14T07:32:42.753Z,100941.91
2022-11-14T07:35:28.823Z,100958.66
2022-11-14T07:38:11.260Z,100953.06
2022-11-14T07:41:08.485Z,100948.00
2022-11-14T07:43:50.201Z,100938.34
2022-11-14T07:46:32.269Z,100944.12
2022-11-14T07:49:14.231Z,100939.66
2022-11-14T07:52:06.214Z,100946.06
2022-11-14T07:54:48.598Z,100949.91
2022-11-14T07:57:33.301Z,100943.91
2022-11-14T08:00:13.884Z,100940.94
2022-11-14T08:02:56.172Z,100938.97
2022-11-14T08:05:38.155Z,100939.22
2022-11-14T08:08:24.260Z,100936.22
2022-11-14T08:11:07.608Z,100932.03
2022-11-14T08:13:52.481Z,100933.44
2022-11-14T08:16:51.897Z,100924.28
2022-11-14T08:19:34.247Z,100929.78
2022-11-14T08:22:16.191Z,100923.06
2022-11-14T08:24:58.290Z,100927.78
2022-11-14T08:27:41.200Z,100919.81
2022-11-14T08:30:23.186Z,100919.06
2022-11-14T08:33:06.560Z,100913.56
2022-11-14T08:35:50.255Z,100906.97
2022-11-14T08:38:43.128Z,100916.31
2022-11-14T08:41:49.332Z,100911.50
2022-11-14T08:44:31.233Z,100898.16
2022-11-14T08:47:13.212Z,100900.63
2022-11-14T08:49:55.192Z,100901.09
2022-11-14T08:52:37.122Z,100895.06
2022-11-14T08:55:20.598Z,100889.38
2022-11-14T08:58:03.390Z,100898.34
2022-11-14T09:00:45.666Z,100894.81
2022-11-14T09:03:32.992Z,100892.66
2022-11-14T09:06:15.258Z,100900.22
2022-11-14T09:08:58.040Z,100902.41
2022-11-14T09:11:44.243Z,100903.69
2022-11-14T09:14:26.211Z,100903.97
2022-11-14T09:17:12.335Z,100915.25
2022-11-14T09:19:54.346Z,100895.13
2022-11-14T09:22:36.154Z,100903.19
2022-11-14T09:25:18.190Z,100904.16
2022-11-14T09:28:18.044Z,100900.72
2022-11-14T09:31:08.461Z,100896.34
2022-11-14T09:33:50.183Z,100898.25
2022-11-14T09:36:37.441Z,100890.72
2022-11-14T09:39:23.741Z,100886.50
2022-11-14T09:42:20.132Z,100886.50
2022-11-14T09:45:15.376Z,100882.28
2022-11-14T09:48:11.938Z,100879.59
2022-11-14T09:51:05.044Z,100865.84
2022-11-14T09:53:57.459Z,100865.88
2022-11-14T09:56:50.677Z,100867.69
2022-11-14T09:59:56.791Z,100869.31
2022-11-14T10:03:21.692Z,100857.19
2022-11-14T10:06:29.260Z,100846.66
2022-11-14T10:09:20.997Z,100853.31
2022-11-14T10:12:10.585Z,100843.75
2022-11-14T10:14:58.251Z,100849.47
2022-11-14T10:18:05.229Z,100843.06
2022-11-14T10:21:03.960Z,100837.31
2022-11-14T10:24:05.854Z,100822.59
2022-11-14T10:27:02.187Z,100819.84
2022-11-14T10:29:52.457Z,100821.97
2022-11-14T10:32:50.457Z,100819.22
2022-11-14T10:35:38.468Z,100813.22
2022-11-14T10:38:42.724Z,100811.62
2022-11-14T10:41:56.008Z,100809.47
2022-11-14T10:44:25.223Z,100811.50
2022-11-14T10:47:13.579Z,100805.94
2022-11-14T10:50:19.907Z,100801.59
2022-11-14T10:53:05.969Z,100796.50
2022-11-14T10:56:04.353Z,100796.00
2022-11-14T10:58:47.056Z,100790.44
2022-11-14T11:01:44.199Z,100778.56
2022-11-14T11:04:30.036Z,100784.59
2022-11-14T11:07:44.190Z,100786.19
2022-11-14T11:10:49.867Z,100782.06
2022-11-14T11:13:51.240Z,100778.50
2022-11-14T11:16:37.404Z,100779.44
2022-11-14T11:19:26.401Z,100761.41
2022-11-14T11:22:51.219Z,100753.84
2022-11-14T11:25:39.155Z,100750.59
2022-11-14T11:28:25.258Z,100752.13
2022-11-14T11:31:11.764Z,100748.22
2022-11-14T11:34:03.397Z,100747.91
2022-11-14T11:36:54.089Z,100741.91
2022-11-14T11:39:52.106Z,100742.34
2022-11-14T11:45:47.639Z,100746.13
2022-11-14T11:48:46.562Z,100728.66
2022-11-14T11:51:46.362Z,100730.44
2022-11-14T11:54:51.905Z,100733.84
2022-11-14T11:58:02.510Z,100735.84
2022-11-14T12:00:53.047Z,100732.34
2022-11-14T12:03:40.586Z,100713.94
2022-11-14T12:06:28.708Z,100711.06
2022-11-14T12:09:17.663Z,100709.19
2022-11-14T12:12:10.837Z,100704.06
2022-11-14T12:15:28.933Z,100692.25
2022-11-14T12:18:18.230Z,100690.69
2022-11-14T12:21:04.120Z,100691.00
2022-11-14T12:24:19.377Z,100684.31
2022-11-14T12:27:11.647Z,100678.31
2022-11-14T12:30:21.834Z,100679.75
2022-11-14T12:33:15.746Z,100679.16
2022-11-14T12:36:05.840Z,100672.28
2022-11-14T12:38:53.722Z,100671.63
2022-11-14T12:41:40.556Z,100664.50
2022-11-14T12:44:29.689Z,100660.94
2022-11-14T12:47:16.765Z,100657.75
2022-11-14T12:50:39.913Z,100655.31
2022-11-14T12:53:38.214Z,100656.66
2022-11-14T12:56:30.792Z,100655.94
2022-11-14T12:59:31.957Z,100654.88
2022-11-14T13:02:45.236Z,100644.22
2022-11-14T13:05:48.802Z,100645.72
2022-11-14T13:09:12.775Z,100639.81
2022-11-14T13:12:17.800Z,100636.28
2022-11-14T13:15:43.479Z,100636.28
2022-11-14T13:18:52.604Z,100633.56
2022-11-14T13:21:47.711Z,100635.31
2022-11-14T13:24:59.005Z,100632.03
2022-11-14T13:28:06.376Z,100634.69
2022-11-14T13:31:16.868Z,100627.00
2022-11-14T13:34:40.963Z,100622.38
2022-11-14T13:37:51.860Z,100622.19
2022-11-14T13:40:57.049Z,100625.28
2022-11-14T13:43:46.071Z,100614.88
2022-11-14T13:46:44.205Z,100619.00
2022-11-14T13:49:49.829Z,100612.00
2022-11-14T13:52:42.849Z,100600.91
2022-11-14T13:55:48.547Z,100599.50
2022-11-14T13:59:08.095Z,100600.28
2022-11-14T14:02:10.355Z,100606.37
2022-11-14T14:05:11.518Z,100600.03
2022-11-14T14:08:06.738Z,100603.09
2022-11-14T14:11:04.936Z,100601.94
2022-11-14T14:14:00.702Z,100597.53
2022-11-14T14:16:57.376Z,100607.94
2022-11-14T14:20:06.763Z,100601.22
2022-11-14T14:23:07.166Z,100610.13
2022-11-14T14:26:10.960Z,100604.50
2022-11-14T14:29:33.902Z,100610.50
2022-11-14T14:32:20.503Z,100597.63
2022-11-14T14:35:26.476Z,100592.75
2022-11-14T14:38:13.846Z,100595.88
2022-11-14T14:41:07.418Z,100598.53
2022-11-14T14:43:56.554Z,100605.09
2022-11-14T14:46:45.083Z,100589.94
2022-11-14T14:49:35.611Z,100590.22
2022-11-14T14:52:37.077Z,100581.31
2022-11-14T14:55:32.483Z,100581.31
2022-11-14T14:58:22.757Z,100586.31
2022-11-14T15:01:16.782Z,100586.25
2022-11-14T15:04:05.710Z,100580.16
2022-11-14T15:06:56.090Z,100573.06
2022-11-14T15:10:00.520Z,100573.34
2022-11-14T15:12:46.840Z,100578.50
2022-11-14T15:15:33.410Z,100575.06
2022-11-14T15:18:28.679Z,100571.59
2022-11-14T15:21:29.322Z,100574.31
2022-11-14T15:24:17.408Z,100577.72
2022-11-14T15:27:05.579Z,100570.75
2022-11-14T15:29:54.216Z,100571.41
2022-11-14T15:32:50.065Z,100560.38
2022-11-14T15:35:38.311Z,100564.94
2022-11-14T15:41:32.425Z,100562.37
2022-11-14T15:44:32.453Z,100561.19
2022-11-14T15:47:29.659Z,100567.97
2022-11-14T15:50:16.179Z,100571.28
2022-11-14T15:53:05.046Z,100570.09
2022-11-14T15:55:50.919Z,100574.19
2022-11-14T15:58:37.145Z,100571.03
2022-11-14T16:01:26.188Z,100573.78
2022-11-14T16:04:18.532Z,100578.25
2022-11-14T16:07:05.065Z,100575.38
2022-11-14T16:09:51.491Z,100573.72
2022-11-14T16:12:37.864Z,100571.53
2022-11-14T16:15:23.908Z,100570.69
2022-11-14T16:18:11.871Z,100572.94
2022-11-14T16:20:59.545Z,100577.50
2022-11-14T16:23:45.847Z,100577.38
2022-11-14T16:26:33.014Z,100591.31
2022-11-14T16:29:19.210Z,100578.78
2022-11-14T16:32:05.463Z,100584.84
2022-11-14T16:34:51.489Z,100577.78
2022-11-14T16:37:38.185Z,100578.00
2022-11-14T16:40:27.800Z,100578.91
2022-11-14T16:43:14.893Z,100586.63
2022-11-14T16:46:05.448Z,100585.97
2022-11-14T16:48:51.355Z,100587.59
2022-11-14T16:51:48.569Z,100590.44
2022-11-14T16:54:35.829Z,100581.94
2022-11-14T16:57:22.534Z,100589.84
2022-11-14T17:00:12.459Z,100589.37
2022-11-14T17:02:59.382Z,100593.75
2022-11-14T17:05:46.980Z,100589.31
2022-11-14T17:08:33.078Z,100585.34
2022-11-14T17:11:19.274Z,100590.31
2022-11-14T17:14:07.545Z,100586.94
2022-11-14T17:16:53.615Z,100580.94
2022-11-14T17:19:45.813Z,100583.03
2022-11-14T17:22:34.015Z,100584.47
2022-11-14T17:25:20.624Z,100574.53
2022-11-14T17:28:06.799Z,100568.22
2022-11-14T17:30:52.869Z,100571.44
2022-11-14T17:33:39.059Z,100582.41
2022-11-14T17:36:27.204Z,100578.19
2022-11-14T17:39:13.245Z,100571.91
2022-11-14T17:41:59.286Z,100574.56
2022-11-14T17:44:45.193Z,100564.38
2022-11-14T17:47:31.348Z,100572.97
2022-11-14T17:50:17.510Z,100582.00
2022-11-14T17:53:03.523Z,100572.19
2022-11-14T17:55:57.340Z,100565.03
2022-11-14T17:58:44.009Z,100564.34
2022-11-14T18:01:31.639Z,100558.03
2022-11-14T18:04:17.998Z,100557.62
2022-11-14T18:07:04.983Z,100557.84
2022-11-14T18:09:51.283Z,100554.25
2022-11-14T18:12:37.454Z,100559.37
2022-11-14T18:15:27.722Z,100561.00
2022-11-14T18:18:14.447Z,100563.19
2022-11-14T18:21:07.751Z,100562.06
2022-11-14T18:23:55.555Z,100563.25
2022-11-14T18:26:41.714Z,100566.09
2022-11-14T18:29:28.534Z,100563.09
2022-11-14T18:32:15.741Z,100560.97
2022-11-14T18:35:01.596Z,100562.25
2022-11-14T18:37:47.818Z,100548.28
2022-11-14T18:40:34.098Z,100556.25
2022-11-14T18:43:20.273Z,100550.06
2022-11-14T18:46:18.053Z,100553.13
2022-11-14T18:49:04.520Z,100554.97
2022-11-14T18:51:50.722Z,100554.63
2022-11-14T18:54:38.264Z,100554.81
2022-11-14T18:57:24.312Z,100542.47
2022-11-14T19:00:11.641Z,100544.84
2022-11-14T19:03:01.039Z,100546.06
2022-11-14T19:05:51.027Z,100537.16
2022-11-14T19:08:37.277Z,100544.16
2022-11-14T19:11:42.962Z,100539.41
2022-11-14T19:14:29.433Z,100542.22
2022-11-14T19:17:20.715Z,100534.56
2022-11-14T19:20:12.924Z,100535.31
2022-11-14T19:23:00.256Z,100544.06
2022-11-14T19:25:48.067Z,100538.78
2022-11-14T19:28:34.197Z,100540.12
2022-11-14T19:31:21.029Z,100535.63
2022-11-14T19:34:07.104Z,100542.78
2022-11-14T19:37:02.022Z,100535.03
2022-11-14T19:39:52.562Z,100533.41
2022-11-14T19:42:38.644Z,100537.88
2022-11-14T19:45:25.097Z,100548.16
2022-11-14T19:48:11.396Z,100541.84
2022-11-14T19:51:02.564Z,100546.59
2022-11-14T19:53:49.074Z,100548.47
2022-11-14T19:56:35.302Z,100553.56
2022-11-14T19:59:26.251Z,100550.72
2022-11-14T20:02:13.414Z,100534.22
2022-11-14T20:04:59.537Z,100520.59
2022-11-14T20:07:45.655Z,100526.84
2022-11-14T20:10:31.895Z,100534.56
2022-11-14T20:13:17.952Z,100528.47
2022-11-14T20:16:15.070Z,100523.09
2022-11-14T20:19:02.036Z,100513.16
2022-11-14T20:21:49.043Z,100509.47
2022-11-14T20:24:35.127Z,100513.72
2022-11-14T20:27:21.195Z,100508.69
2022-11-14T20:30:07.916Z,100511.37
2022-11-14T20:32:54.278Z,100512.22
2022-11-14T20:35:40.469Z,100520.00
2022-11-14T20:38:29.083Z,100513.03
2022-11-14T20:41:15.785Z,100510.63
2022-11-14T20:44:03.572Z,100512.00
2022-11-14T20:46:49.736Z,100505.47
2022-11-14T20:49:35.770Z,100511.66
2022-11-14T20:52:22.093Z,100510.22
2022-11-14T20:55:11.757Z,100520.59
2022-11-14T20:57:57.936Z,100516.16
2022-11-14T21:00:43.957Z,100512.81
2022-11-14T21:03:30.569Z,100512.22
2022-11-14T21:06:17.485Z,100506.00
2022-11-14T21:09:03.968Z,100505.00
2022-11-14T21:11:50.211Z,100498.72
2022-11-14T21:14:36.196Z,100492.59
2022-11-14T21:17:22.267Z,100491.84
2022-11-14T21:20:09.434Z,100489.66
2022-11-14T21:22:55.724Z,100490.00
2022-11-14T21:25:41.973Z,100478.47
2022-11-14T21:28:30.242Z,100476.59
2022-11-14T21:31:31.662Z,100480.44
2022-11-14T21:34:18.205Z,100473.28
2022-11-14T21:37:04.486Z,100467.63
2022-11-14T21:39:50.514Z,100469.94
2022-11-14T21:42:36.671Z,100475.50
2022-11-14T21:45:22.861Z,100466.88
2022-11-14T21:48:08.966Z,100462.41
2022-11-14T21:51:02.554Z,100463.09
2022-11-14T21:53:49.969Z,100468.25
2022-11-14T21:56:37.277Z,100457.03
2022-11-14T21:59:27.463Z,100468.47
2022-11-14T22:02:32.087Z,100459.56
2022-11-14T22:05:17.940Z,100458.97
2022-11-14T22:08:04.292Z,100461.22
2022-11-14T22:10:49.982Z,100459.38
2022-11-14T22:13:35.977Z,100457.56
2022-11-14T22:16:22.040Z,100458.91
2022-11-14T22:19:07.906Z,100439.88
2022-11-14T22:21:54.459Z,100441.31
2022-11-14T22:24:43.787Z,100434.56
2022-11-14T22:27:30.560Z,100438.31
2022-11-14T22:30:16.817Z,100444.59
2022-11-14T22:33:02.905Z,100442.69
2022-11-14T22:35:48.870Z,100433.00
2022-11-14T22:38:36.074Z,100427.63
2022-11-14T22:41:32.789Z,100436.63
2022-11-14T22:44:19.715Z,100425.84
2022-11-14T22:47:05.781Z,100438.34
2022-11-14T22:49:51.776Z,100434.00
2022-11-14T22:52:37.960Z,100437.41
2022-11-14T22:55:23.770Z,100425.19
2022-11-14T22:58:09.969Z,100423.09
2022-11-14T23:00:56.032Z,100420.56
2022-11-14T23:03:42.193Z,100409.00
2022-11-14T23:06:31.661Z,100410.06
2022-11-14T23:09:33.131Z,100403.84
2022-11-14T23:12:15.776Z,100414.28
2022-11-14T23:15:14.229Z,100411.69
2022-11-14T23:18:12.086Z,100406.13
2022-11-14T23:21:15.297Z,100407.78
2022-11-14T23:24:15.631Z,100409.06
2022-11-14T23:27:13.793Z,100398.91
2022-11-14T23:30:12.239Z,100404.28
2022-11-14T23:33:09.791Z,100392.16
2022-11-14T23:36:08.272Z,100393.50
2022-11-14T23:38:56.198Z,100390.53
2022-11-14T23:41:54.026Z,100390.31
2022-11-14T23:44:51.802Z,100383.00
2022-11-14T23:47:50.131Z,100372.22
2022-11-14T23:50:41.364Z,100372.31
2022-11-14T23:53:39.419Z,100381.38
2022-11-14T23:56:25.819Z,100375.75
2022-11-14T23:59:11.816Z,100372.56
